Time;durP1;ratioP1;P1;durP2;ratioP2;P2;SDS_P1;SDS_P2;PMS_P1;PMS_P2;Temp;Humidity;BMP_temperature;BMP_pressure;BME280_temperature;BME280_humidity;BME280_pressure;Samples;Min_cycle;Max_cycle;Signal;HPM_P1;HPM_P2
2023/01/17 00:01:17;;;;;;;1.08;0.90;;;7.30;99.90;;;;;;5010413;28;20091;-85
2023/01/17 00:11:58;;;;;;;1.23;0.95;;;7.20;99.90;;;;;;5014424;28;20045;-83
2023/01/17 00:14:26;;;;;;;1.13;0.98;;;7.10;99.90;;;;;;5014657;28;20467;-86
2023/01/17 00:16:51;;;;;;;1.30;1.10;;;7.10;99.90;;;;;;5013208;28;20034;-83
2023/01/17 01:34:17;;;;;;;1.75;1.52;;;6.50;99.90;;;;;;5013133;28;20048;-84
2023/01/17 01:36:43;;;;;;;4.20;1.63;;;6.60;99.90;;;;;;5012339;28;20034;-85
2023/01/17 01:39:08;;;;;;;2.08;1.80;;;6.70;99.90;;;;;;5014412;28;20245;-82
2023/01/17 01:41:34;;;;;;;2.65;1.73;;;6.70;99.90;;;;;;5014722;28;20377;-83
2023/01/17 01:44:00;;;;;;;2.63;2.22;;;6.80;99.90;;;;;;5013601;28;20029;-83
2023/01/17 01:46:38;;;;;;;2.35;2.03;;;6.80;99.90;;;;;;5013597;28;20053;-83
2023/01/17 01:49:19;;;;;;;2.92;2.60;;;6.70;99.90;;;;;;5012435;28;20044;-83
2023/01/17 01:51:50;;;;;;;3.10;2.60;;;6.50;99.90;;;;;;5014677;28;20103;-80
2023/01/17 01:54:22;;;;;;;3.95;2.67;;;6.50;99.90;;;;;;5015441;28;20029;-83
2023/01/17 01:56:50;;;;;;;3.42;2.55;;;6.50;99.90;;;;;;5013712;28;20033;-82
2023/01/17 01:59:19;;;;;;;3.08;2.50;;;6.60;99.90;;;;;;5012239;28;20022;-81
2023/01/17 02:01:46;;;;;;;3.72;2.20;;;6.30;99.90;;;;;;5013313;28;20026;-81
2023/01/17 02:04:13;;;;;;;2.85;2.28;;;6.40;99.90;;;;;;5012034;28;20470;-81
2023/01/17 02:06:45;;;;;;;2.08;1.67;;;6.40;99.90;;;;;;5012868;28;20037;-83
2023/01/17 02:09:13;;;;;;;3.05;2.30;;;6.50;99.90;;;;;;5015353;28;20018;-84
2023/01/17 02:11:44;;;;;;;4.05;2.30;;;6.40;99.90;;;;;;5012120;28;20437;-82
2023/01/17 02:14:21;;;;;;;2.80;2.28;;;6.40;99.90;;;;;;5012305;28;20033;-81
2023/01/17 02:17:05;;;;;;;2.28;1.92;;;6.40;99.90;;;;;;5011176;28;20402;-80
2023/01/17 02:19:46;;;;;;;2.17;1.88;;;6.30;99.90;;;;;;5011799;28;20036;-82
2023/01/17 02:22:46;;;;;;;2.28;1.88;;;6.50;99.90;;;;;;5011977;28;20096;-84
2023/01/17 02:25:30;;;;;;;2.20;1.63;;;6.30;99.90;;;;;;5011625;28;20107;-83
2023/01/17 02:28:15;;;;;;;2.40;1.73;;;6.20;99.90;;;;;;5011398;28;20069;-82
2023/01/17 02:30:50;;;;;;;2.58;1.95;;;6.30;99.90;;;;;;5011428;28;20045;-81
2023/01/17 02:33:28;;;;;;;2.13;1.80;;;6.30;99.90;;;;;;5010346;28;20084;-83
2023/01/17 02:36:12;;;;;;;1.67;1.50;;;6.40;99.90;;;;;;5011265;28;20140;-84
2023/01/17 02:38:57;;;;;;;2.47;1.75;;;6.40;99.90;;;;;;5011912;28;20110;-84
2023/01/17 02:41:44;;;;;;;2.05;1.55;;;6.40;99.90;;;;;;5011487;28;20379;-84
2023/01/17 02:44:14;;;;;;;;;;;6.20;99.90;;;;;;5011796;28;20038;-82
2023/01/17 02:46:47;;;;;;;1.92;1.70;;;6.20;99.90;;;;;;5011455;28;19964;-82
2023/01/17 02:49:18;;;;;;;1.65;1.55;;;6.20;99.90;;;;;;5010115;28;20081;-83
2023/01/17 02:52:09;;;;;;;2.05;1.50;;;6.30;99.90;;;;;;5009898;28;20149;-84
2023/01/17 02:55:06;;;;;;;1.52;1.38;;;6.30;99.90;;;;;;5010130;28;20125;-85
2023/01/17 02:58:05;;;;;;;2.55;1.67;;;6.40;99.90;;;;;;5001566;28;20041;-81
2023/01/17 03:00:38;;;;;;;2.03;1.77;;;6.20;99.90;;;;;;5011068;28;20057;-82
2023/01/17 03:03:28;;;;;;;3.00;1.80;;;6.10;99.90;;;;;;5011122;28;20360;-81
2023/01/17 03:05:58;;;;;;;2.78;1.88;;;6.10;99.90;;;;;;5010179;28;20415;-83
2023/01/17 03:08:26;;;;;;;2.20;1.88;;;6.00;99.90;;;;;;5012054;28;20026;-86
2023/01/17 03:10:52;;;;;;;2.08;1.88;;;6.10;99.90;;;;;;5011565;28;20135;-82
2023/01/17 03:13:17;;;;;;;2.33;1.83;;;6.10;99.90;;;;;;5010077;28;20042;-83
2023/01/17 03:15:44;;;;;;;1.95;1.77;;;6.20;99.90;;;;;;5011110;28;20029;-81
2023/01/17 03:18:13;;;;;;;1.90;1.67;;;6.10;99.90;;;;;;5009829;28;20036;-82
2023/01/17 03:20:38;;;;;;;2.13;1.88;;;6.20;99.90;;;;;;5011314;28;20022;-84
2023/01/17 03:23:04;;;;;;;3.13;1.33;;;6.10;99.90;;;;;;5010962;28;20030;-83
2023/01/17 03:25:30;;;;;;;1.30;1.02;;;6.00;99.90;;;;;;5010624;28;20050;-84
2023/01/17 03:27:55;;;;;;;1.38;1.20;;;6.10;99.90;;;;;;5010837;28;20049;-84
2023/01/17 03:30:21;;;;;;;1.23;1.13;;;6.20;99.90;;;;;;5011053;28;20053;-84
2023/01/17 03:32:48;;;;;;;1.80;1.40;;;6.20;99.90;;;;;;5011170;28;20034;-83
2023/01/17 03:35:17;;;;;;;1.65;1.48;;;6.20;99.90;;;;;;5010780;28;20030;-83
2023/01/17 03:37:43;;;;;;;1.58;1.20;;;6.30;99.90;;;;;;5009625;28;20033;-81
2023/01/17 03:40:09;;;;;;;2.35;1.65;;;6.30;99.90;;;;;;5010784;28;20030;-82
2023/01/17 03:42:34;;;;;;;1.38;1.15;;;6.30;99.90;;;;;;5009805;28;20088;-85
2023/01/17 03:45:00;;;;;;;1.20;0.93;;;6.30;99.90;;;;;;5013923;28;20428;-84
2023/01/17 03:47:26;;;;;;;1.45;1.05;;;6.30;99.90;;;;;;5015302;28;20018;-83
2023/01/17 03:49:52;;;;;;;1.75;1.45;;;6.40;99.90;;;;;;5014528;28;20460;-84
2023/01/17 03:52:17;;;;;;;2.03;1.30;;;6.40;99.90;;;;;;5013301;28;20034;-85
2023/01/17 03:54:43;;;;;;;0.77;0.77;;;6.20;99.90;;;;;;5013821;28;20157;-86
2023/01/17 03:57:08;;;;;;;1.42;1.08;;;6.40;99.90;;;;;;5014482;28;20026;-83
2023/01/17 03:59:34;;;;;;;2.00;1.23;;;6.40;99.90;;;;;;5014990;28;20099;-82
2023/01/17 04:02:00;;;;;;;1.23;1.10;;;6.40;99.90;;;;;;5015360;28;20522;-83
2023/01/17 04:04:26;;;;;;;1.85;1.60;;;6.40;99.90;;;;;;5016261;28;20045;-85
2023/01/17 04:06:52;;;;;;;1.30;1.20;;;6.20;99.90;;;;;;5016055;28;20088;-82
2023/01/17 04:09:17;;;;;;;1.92;1.65;;;6.30;99.90;;;;;;5014643;28;20383;-83
2023/01/17 04:11:43;;;;;;;2.08;1.45;;;6.40;99.90;;;;;;5016226;28;20575;-83
2023/01/17 04:14:08;;;;;;;1.60;1.10;;;6.40;99.90;;;;;;5013437;28;20384;-82
2023/01/17 04:16:36;;;;;;;1.42;1.10;;;6.50;99.90;;;;;;5018596;28;20048;-83
2023/01/17 04:19:05;;;;;;;1.60;1.50;;;6.70;99.90;;;;;;5018037;28;20360;-83
2023/01/17 04:21:31;;;;;;;1.63;1.45;;;6.50;99.90;;;;;;5015344;28;20045;-84
2023/01/17 04:23:56;;;;;;;1.52;1.42;;;6.60;99.90;;;;;;5014525;28;20456;-83
2023/01/17 04:26:22;;;;;;;1.73;1.42;;;6.60;99.90;;;;;;5014809;28;20491;-84
2023/01/17 04:28:50;;;;;;;3.95;1.80;;;6.50;99.90;;;;;;5013970;28;20038;-84
2023/01/17 04:31:16;;;;;;;;;;;6.40;99.90;;;;;;5015486;28;20060;-82
2023/01/17 04:33:41;;;;;;;1.45;1.30;;;6.40;99.90;;;;;;5013405;28;20370;-84
2023/01/17 04:36:07;;;;;;;1.58;0.98;;;6.60;99.90;;;;;;5014249;28;20552;-83
2023/01/17 04:38:34;;;;;;;1.58;1.40;;;6.40;99.90;;;;;;5014481;28;20025;-83
2023/01/17 04:41:00;;;;;;;2.63;1.10;;;6.30;99.90;;;;;;5014766;28;20286;-83
2023/01/17 04:43:25;;;;;;;1.13;0.70;;;6.40;99.90;;;;;;5015320;28;20109;-83
2023/01/17 04:45:55;;;;;;;2.17;1.20;;;6.40;99.90;;;;;;5014406;28;20044;-83
2023/01/17 04:48:21;;;;;;;0.80;0.80;;;6.40;99.90;;;;;;5012547;28;20044;-85
2023/01/17 04:50:46;;;;;;;1.20;0.88;;;6.30;99.90;;;;;;5013392;28;20456;-84
2023/01/17 04:53:12;;;;;;;1.08;0.77;;;6.50;99.90;;;;;;5014688;28;20108;-83
2023/01/17 04:55:38;;;;;;;1.52;0.95;;;6.40;99.90;;;;;;5012982;28;20137;-83
2023/01/17 04:58:03;;;;;;;1.00;0.60;;;6.20;99.90;;;;;;5014169;28;20109;-82
2023/01/17 05:00:29;;;;;;;1.33;0.80;;;6.00;99.90;;;;;;5013568;28;20030;-83
2023/01/17 05:02:57;;;;;;;1.60;0.68;;;6.00;99.90;;;;;;5012551;28;20032;-81
2023/01/17 05:05:23;;;;;;;;;;;6.00;99.90;;;;;;5014541;28;20037;-80
2023/01/17 05:07:53;;;;;;;1.63;0.60;;;6.20;99.90;;;;;;5013943;28;20333;-83
2023/01/17 05:10:19;;;;;;;1.25;0.73;;;6.20;99.90;;;;;;5013312;28;20049;-81
2023/01/17 05:12:52;;;;;;;0.57;0.52;;;5.90;99.90;;;;;;5014093;28;20034;-82
2023/01/17 05:15:18;;;;;;;0.98;0.70;;;5.80;99.90;;;;;;5014208;28;20512;-83
2023/01/17 05:17:44;;;;;;;0.75;0.68;;;5.80;99.90;;;;;;5013873;28;20034;-83
2023/01/17 05:20:10;;;;;;;3.35;0.77;;;5.70;99.90;;;;;;5013164;28;20124;-82
2023/01/17 05:22:38;;;;;;;1.02;0.70;;;5.60;99.90;;;;;;5013093;28;20045;-83
2023/01/17 05:25:04;;;;;;;0.80;0.80;;;5.70;99.90;;;;;;5012834;28;20491;-81
2023/01/17 05:27:30;;;;;;;1.92;0.60;;;5.70;99.90;;;;;;5013150;28;20074;-80
2023/01/17 05:29:56;;;;;;;0.93;0.43;;;5.80;99.90;;;;;;5012892;28;20033;-79
2023/01/17 05:32:21;;;;;;;0.30;0.30;;;5.50;99.90;;;;;;5012347;28;20540;-81
2023/01/17 05:34:47;;;;;;;1.13;0.57;;;5.40;99.90;;;;;;5012670;28;20034;-81
2023/01/17 05:37:13;;;;;;;1.17;0.40;;;5.40;99.90;;;;;;5012501;28;20030;-80
2023/01/17 05:39:39;;;;;;;0.10;0.10;;;5.30;99.90;;;;;;5012696;28;20443;-82
2023/01/17 05:42:04;;;;;;;0.17;0.08;;;5.30;99.90;;;;;;5011403;28;20356;-81
2023/01/17 05:44:32;;;;;;;1.92;0.25;;;5.10;99.90;;;;;;5013329;28;20033;-81
2023/01/17 05:46:57;;;;;;;0.77;0.23;;;5.20;99.90;;;;;;5011921;28;20117;-80
2023/01/17 05:49:23;;;;;;;1.83;0.40;;;5.20;99.90;;;;;;5012345;28;20450;-80
2023/01/17 05:51:49;;;;;;;0.88;0.22;;;5.10;99.90;;;;;;5012078;28;20067;-80
2023/01/17 05:54:15;;;;;;;0.90;0.30;;;5.10;99.90;;;;;;5011940;28;20025;-82
2023/01/17 05:56:41;;;;;;;0.50;0.30;;;5.10;99.90;;;;;;5011756;28;20025;-82
2023/01/17 05:59:07;;;;;;;0.40;0.30;;;5.00;99.90;;;;;;5011077;28;20048;-85
2023/01/17 06:01:32;;;;;;;0.80;0.40;;;4.90;99.90;;;;;;5011312;28;20022;-80
2023/01/17 06:03:58;;;;;;;0.77;0.60;;;4.80;99.90;;;;;;5012039;28;20030;-81
2023/01/17 06:06:23;;;;;;;0.73;0.40;;;4.80;99.90;;;;;;5011917;28;20042;-82
2023/01/17 06:08:49;;;;;;;0.55;0.40;;;5.10;99.90;;;;;;5011605;28;20030;-82
2023/01/17 06:11:17;;;;;;;2.50;0.40;;;5.00;99.90;;;;;;5010845;28;20026;-83
2023/01/17 06:13:43;;;;;;;0.75;0.50;;;5.10;99.90;;;;;;5012118;28;20038;-84
2023/01/17 06:16:08;;;;;;;0.68;0.50;;;5.20;99.90;;;;;;5011967;28;20037;-83
2023/01/17 06:18:34;;;;;;;1.92;0.50;;;4.90;99.90;;;;;;5012664;28;20034;-83
2023/01/17 06:21:00;;;;;;;1.08;0.40;;;5.00;99.90;;;;;;5011551;28;20449;-81
2023/01/17 06:23:27;;;;;;;0.85;0.57;;;5.00;99.90;;;;;;5012249;28;20080;-80
2023/01/17 06:25:52;;;;;;;0.70;0.50;;;5.00;99.90;;;;;;5011424;28;20447;-84
2023/01/17 06:28:20;;;;;;;2.67;0.75;;;5.10;99.90;;;;;;5011530;28;20061;-85
2023/01/17 06:30:46;;;;;;;2.05;0.70;;;5.00;99.90;;;;;;5012581;28;20067;-81
2023/01/17 06:33:12;;;;;;;2.78;0.70;;;5.10;99.90;;;;;;5011353;28;20520;-82
2023/01/17 06:35:39;;;;;;;1.17;0.40;;;5.00;99.90;;;;;;5012154;28;20036;-78
2023/01/17 06:38:06;;;;;;;1.63;0.75;;;4.90;99.90;;;;;;5011815;28;20128;-80
2023/01/17 06:40:32;;;;;;;1.35;0.50;;;5.00;99.90;;;;;;5011919;28;20038;-79
2023/01/17 06:43:03;;;;;;;0.98;0.40;;;5.00;99.90;;;;;;5011061;28;20120;-80
2023/01/17 06:45:30;;;;;;;0.52;0.38;;;4.90;99.90;;;;;;5010681;28;20037;-83
2023/01/17 06:47:57;;;;;;;3.90;0.80;;;5.00;99.90;;;;;;5011889;28;20060;-82
2023/01/17 06:50:24;;;;;;;1.50;0.68;;;5.00;99.90;;;;;;5011555;28;20026;-81
2023/01/17 06:52:58;;;;;;;2.17;0.47;;;5.00;99.90;;;;;;5011645;28;20041;-81
2023/01/17 06:55:27;;;;;;;5.28;0.90;;;4.90;99.90;;;;;;5010532;28;20487;-80
2023/01/17 06:57:58;;;;;;;1.95;0.50;;;4.90;99.90;;;;;;5010848;28;20038;-76
2023/01/17 07:00:25;;;;;;;0.63;0.55;;;4.90;99.90;;;;;;5011074;28;20037;-77
2023/01/17 07:02:52;;;;;;;1.00;0.60;;;4.90;99.90;;;;;;5008015;28;20026;-81
2023/01/17 07:05:18;;;;;;;3.03;0.88;;;5.10;99.90;;;;;;4991885;28;20042;-82
2023/01/17 07:07:44;;;;;;;1.73;0.70;;;5.10;99.90;;;;;;4991192;28;20042;-80
2023/01/17 07:10:11;;;;;;;2.28;0.93;;;5.20;99.90;;;;;;4992183;28;20496;-86
2023/01/17 07:12:37;;;;;;;1.40;0.53;;;5.20;99.90;;;;;;4994715;28;20046;-88
2023/01/17 07:15:04;;;;;;;2.33;0.40;;;5.20;99.90;;;;;;4991175;28;20038;-82
2023/01/17 07:17:30;;;;;;;0.45;0.40;;;5.10;99.90;;;;;;4992833;28;20030;-82
2023/01/17 07:19:55;;;;;;;1.75;0.50;;;5.10;99.90;;;;;;4998598;28;20185;-89
2023/01/17 07:22:22;;;;;;;3.28;0.70;;;5.20;99.90;;;;;;4995963;28;20045;-86
2023/01/17 07:24:48;;;;;;;3.15;0.70;;;5.40;99.90;;;;;;4996226;28;20511;-83
2023/01/17 07:27:13;;;;;;;1.02;0.60;;;5.30;99.90;;;;;;4995830;28;20030;-81
2023/01/17 07:29:39;;;;;;;0.52;0.32;;;5.10;99.90;;;;;;4996736;28;20038;-87
2023/01/17 07:32:07;;;;;;;1.52;0.50;;;5.20;99.90;;;;;;4996450;28;20028;-83
2023/01/17 07:34:33;;;;;;;0.77;0.60;;;5.20;99.90;;;;;;4995413;28;20041;-83
2023/01/17 07:36:59;;;;;;;1.80;0.68;;;5.20;99.90;;;;;;4995407;28;20030;-91
2023/01/17 07:39:25;;;;;;;2.67;0.70;;;5.20;99.90;;;;;;4995553;28;20109;-78
2023/01/17 07:41:50;;;;;;;4.38;0.80;;;4.90;99.90;;;;;;4994492;28;20030;-81
2023/01/17 07:44:16;;;;;;;3.13;0.60;;;5.00;99.90;;;;;;4993889;28;20077;-78
2023/01/17 07:46:42;;;;;;;6.43;1.10;;;5.10;99.90;;;;;;4995003;28;20031;-82
2023/01/17 07:49:07;;;;;;;1.77;0.85;;;5.20;99.90;;;;;;4993830;28;20030;-77
2023/01/17 07:51:33;;;;;;;5.47;0.82;;;5.10;99.90;;;;;;4993655;28;20030;-78
2023/01/17 07:53:58;;;;;;;2.17;0.85;;;5.00;99.90;;;;;;4993879;28;20030;-80
2023/01/17 07:56:25;;;;;;;9.07;1.58;;;5.00;99.90;;;;;;4994533;28;20125;-82
2023/01/17 07:58:51;;;;;;;2.42;1.00;;;5.10;99.90;;;;;;4994318;28;20356;-82
2023/01/17 08:01:17;;;;;;;2.35;0.85;;;5.10;99.90;;;;;;4994593;28;20034;-82
2023/01/17 08:03:42;;;;;;;3.50;1.55;;;5.10;99.90;;;;;;4994898;28;20113;-84
2023/01/17 08:06:23;;;;;;;6.47;1.50;;;5.10;99.90;;;;;;4995919;28;20019;-79
2023/01/17 08:08:49;;;;;;;1.73;1.20;;;5.30;99.90;;;;;;4999136;28;20026;-78
2023/01/17 08:11:15;;;;;;;2.20;1.00;;;5.40;99.90;;;;;;4995948;28;20376;-82
2023/01/17 08:13:40;;;;;;;4.10;0.90;;;5.40;99.90;;;;;;4995306;28;20423;-80
2023/01/17 08:16:09;;;;;;;4.57;1.45;;;5.40;99.90;;;;;;4995477;28;20038;-84
2023/01/17 08:18:35;;;;;;;2.35;0.90;;;5.40;99.90;;;;;;4995114;28;20046;-82
2023/01/17 08:21:00;;;;;;;2.60;1.35;;;5.50;99.90;;;;;;4996298;28;20027;-83
2023/01/17 08:23:26;;;;;;;3.58;1.10;;;5.50;99.90;;;;;;4994721;28;20061;-81
2023/01/17 08:25:52;;;;;;;3.95;1.23;;;5.50;99.90;;;;;;4995152;28;20064;-79
2023/01/17 08:28:18;;;;;;;2.90;1.02;;;5.60;99.90;;;;;;4996442;28;20030;-79
2023/01/17 08:30:44;;;;;;;6.25;1.30;;;5.60;99.90;;;;;;5001809;28;20045;-82
2023/01/17 08:33:10;;;;;;;3.97;0.90;;;5.70;99.90;;;;;;5000238;28;20460;-80
2023/01/17 08:35:37;;;;;;;11.77;2.15;;;5.70;99.90;;;;;;5001750;28;20109;-85
2023/01/17 08:38:03;;;;;;;5.18;1.35;;;5.60;99.90;;;;;;5002575;28;20026;-87
2023/01/17 08:40:31;;;;;;;8.32;1.20;;;5.40;99.90;;;;;;5001306;28;20056;-86
2023/01/17 08:42:59;;;;;;;6.47;1.27;;;5.40;99.90;;;;;;4998242;28;20161;-88
2023/01/17 08:45:25;;;;;;;10.27;1.27;;;5.50;99.90;;;;;;4998388;28;20026;-86
2023/01/17 08:47:51;;;;;;;6.22;1.15;;;5.60;99.90;;;;;;4994941;28;20141;-81
2023/01/17 08:50:23;;;;;;;4.20;1.00;;;5.60;99.90;;;;;;4998056;28;20042;-85
2023/01/17 08:52:49;;;;;;;2.90;1.00;;;5.60;99.90;;;;;;4995118;28;20113;-80
2023/01/17 08:55:15;;;;;;;5.40;1.15;;;5.60;99.90;;;;;;4996507;28;20030;-82
2023/01/17 08:57:41;;;;;;;8.20;1.23;;;5.60;99.90;;;;;;4995006;28;20026;-79
2023/01/17 09:00:08;;;;;;;6.95;0.90;;;5.70;99.90;;;;;;4992621;28;20457;-79
2023/01/17 09:02:34;;;;;;;2.38;0.80;;;5.60;99.90;;;;;;4995055;28;20072;-83
2023/01/17 09:05:00;;;;;;;5.93;1.90;;;5.70;99.90;;;;;;4994941;28;20096;-84
2023/01/17 09:07:25;;;;;;;2.47;0.90;;;5.70;99.90;;;;;;4995913;28;20026;-84
2023/01/17 09:09:52;;;;;;;5.32;1.20;;;5.60;99.90;;;;;;4995346;28;20089;-85
2023/01/17 09:12:19;;;;;;;3.58;1.15;;;5.70;99.90;;;;;;4993146;28;20034;-84
2023/01/17 09:14:45;;;;;;;4.47;1.40;;;5.80;99.90;;;;;;4996068;28;20108;-87
2023/01/17 09:17:10;;;;;;;8.45;1.17;;;5.90;99.90;;;;;;4996466;28;20042;-93
2023/01/17 09:19:40;;;;;;;3.40;0.90;;;6.10;99.90;;;;;;4994356;28;20237;-81
2023/01/17 09:22:06;;;;;;;6.03;1.13;;;6.00;99.90;;;;;;4993461;28;20501;-81
2023/01/17 09:24:32;;;;;;;4.20;0.80;;;5.90;99.90;;;;;;4993349;28;20121;-82
2023/01/17 09:26:58;;;;;;;4.97;0.93;;;5.90;99.90;;;;;;4994496;28;20059;-79
2023/01/17 09:29:24;;;;;;;17.77;6.72;;;5.90;99.90;;;;;;4994997;28;20475;-84
2023/01/17 09:31:52;;;;;;;5.60;2.28;;;6.00;99.90;;;;;;4995702;28;20030;-85
2023/01/17 09:34:24;;;;;;;9.18;1.27;;;5.80;99.80;;;;;;4998649;28;20054;-90
2023/01/17 09:36:50;;;;;;;5.80;1.10;;;5.90;99.90;;;;;;4994016;28;20093;-78
2023/01/17 09:39:16;;;;;;;8.13;1.40;;;5.90;99.90;;;;;;4994056;28;20409;-80
2023/01/17 09:42:00;;;;;;;3.42;1.00;;;5.90;99.90;;;;;;4992995;28;20050;-77
2023/01/17 09:44:42;;;;;;;9.27;1.13;;;5.90;99.90;;;;;;4993449;28;20050;-80
2023/01/17 09:47:51;;;;;;;9.10;0.90;;;5.90;99.90;;;;;;4993520;28;20037;-80
2023/01/17 09:50:32;;;;;;;7.65;1.17;;;6.00;99.90;;;;;;4974587;28;20022;-77
2023/01/17 09:53:21;;;;;;;7.72;1.00;;;6.00;99.20;;;;;;4991695;28;20041;-81
2023/01/17 09:56:02;;;;;;;4.95;0.88;;;5.70;99.40;;;;;;4993212;28;20042;-81
2023/01/17 09:58:42;;;;;;;2.63;0.90;;;5.70;99.50;;;;;;4993589;28;20038;-83
2023/01/17 10:01:24;;;;;;;7.03;1.17;;;5.80;99.50;;;;;;4993602;28;20503;-86
2023/01/17 10:04:22;;;;;;;3.67;1.02;;;6.00;99.50;;;;;;4992685;28;20044;-84
2023/01/17 10:07:10;;;;;;;11.68;1.23;;;5.90;99.20;;;;;;4990902;28;20084;-90
2023/01/17 10:10:06;;;;;;;4.45;1.10;;;6.00;99.30;;;;;;4992491;28;20034;-79
2023/01/17 10:12:44;;;;;;;15.98;5.07;;;6.00;99.20;;;;;;4991548;28;20038;-80
2023/01/17 10:15:28;;;;;;;11.90;5.20;;;5.90;98.90;;;;;;4991529;28;20026;-83
2023/01/17 10:18:15;;;;;;;38.92;13.80;;;5.90;99.10;;;;;;4992137;28;20623;-85
2023/01/17 10:20:52;;;;;;;10.88;2.10;;;6.00;99.30;;;;;;4993563;28;20018;-83
2023/01/17 10:23:56;;;;;;;8.82;1.35;;;6.10;98.90;;;;;;4992796;28;20449;-81
2023/01/17 10:26:24;;;;;;;5.63;1.67;;;6.10;98.80;;;;;;4991912;28;20073;-80
2023/01/17 10:28:53;;;;;;;7.45;1.95;;;6.20;98.90;;;;;;4992242;28;20030;-85
2023/01/17 10:31:23;;;;;;;6.03;1.35;;;6.30;98.80;;;;;;4992847;28;20030;-80
2023/01/17 10:33:57;;;;;;;8.90;1.33;;;6.20;98.80;;;;;;4991663;28;20042;-80
2023/01/17 10:36:33;;;;;;;3.50;1.20;;;6.30;98.80;;;;;;4993977;28;20433;-78
2023/01/17 10:39:19;;;;;;;4.90;1.15;;;6.30;98.70;;;;;;4992707;28;20042;-83
2023/01/17 10:41:57;;;;;;;10.07;1.40;;;6.40;98.60;;;;;;4993404;28;20364;-82
2023/01/17 10:45:03;;;;;;;2.20;0.85;;;6.50;98.40;;;;;;4993093;28;20042;-82
2023/01/17 10:47:31;;;;;;;6.57;1.25;;;6.60;98.20;;;;;;4992198;28;20353;-80
2023/01/17 10:49:58;;;;;;;3.20;1.30;;;6.60;97.90;;;;;;4989226;28;20034;-81
2023/01/17 10:52:35;;;;;;;2.72;1.23;;;6.70;98.00;;;;;;4984149;28;20500;-78
2023/01/17 10:55:18;;;;;;;3.80;1.23;;;6.70;97.90;;;;;;4990493;28;20029;-79
2023/01/17 10:57:47;;;;;;;8.13;1.33;;;6.60;97.50;;;;;;4992059;28;20030;-81
2023/01/17 11:00:16;;;;;;;3.28;1.30;;;6.50;97.50;;;;;;4992121;28;20346;-80
2023/01/17 11:02:48;;;;;;;8.10;1.15;;;6.50;97.50;;;;;;4991904;28;20022;-77
2023/01/17 11:05:25;;;;;;;4.72;1.20;;;6.60;97.70;;;;;;4991599;28;20259;-80
2023/01/17 11:08:03;;;;;;;5.20;0.90;;;6.60;97.70;;;;;;4991877;28;20323;-79
2023/01/17 11:10:47;;;;;;;1.80;0.95;;;6.70;97.60;;;;;;4992675;28;20035;-78
2023/01/17 11:13:26;;;;;;;5.97;0.93;;;6.80;97.30;;;;;;4992009;28;20034;-79
2023/01/17 11:15:59;;;;;;;3.75;1.25;;;6.80;97.00;;;;;;4992298;28;20031;-78
2023/01/17 11:18:28;;;;;;;3.53;1.30;;;6.60;96.80;;;;;;4991510;28;20046;-80
2023/01/17 11:21:10;;;;;;;6.30;1.20;;;6.70;97.00;;;;;;4992174;28;20678;-78
2023/01/17 11:23:38;;;;;;;7.75;1.70;;;7.00;97.10;;;;;;4991699;28;20287;-79
2023/01/17 11:26:09;;;;;;;12.13;1.90;;;7.30;97.20;;;;;;4991891;28;20424;-81
2023/01/17 11:28:37;;;;;;;5.75;1.20;;;7.60;96.30;;;;;;4992789;28;20043;-85
2023/01/17 11:31:26;;;;;;;4.93;1.60;;;8.80;97.30;;;;;;4991475;28;20077;-78
2023/01/17 11:34:06;;;;;;;8.85;1.80;;;9.50;94.30;;;;;;4991565;28;20053;-76
2023/01/17 11:36:32;;;;;;;4.10;1.67;;;10.20;92.50;;;;;;4992020;28;20038;-79
2023/01/17 11:39:01;;;;;;;2.88;1.17;;;10.20;93.00;;;;;;4990919;28;20100;-80
2023/01/17 11:41:33;;;;;;;6.47;1.10;;;10.70;91.70;;;;;;4991620;28;20038;-79
2023/01/17 11:44:00;;;;;;;7.30;1.00;;;10.90;91.30;;;;;;4991909;28;20034;-79
2023/01/17 11:46:28;;;;;;;10.00;2.10;;;11.30;90.20;;;;;;4992394;28;20435;-80
2023/01/17 11:49:00;;;;;;;4.50;1.35;;;11.40;90.30;;;;;;4992007;28;20771;-75
2023/01/17 11:51:29;;;;;;;3.50;0.80;;;11.50;88.50;;;;;;4991796;28;20094;-74
2023/01/17 11:54:23;;;;;;;4.68;0.90;;;11.70;90.80;;;;;;4990312;28;20376;-76
2023/01/17 11:56:59;;;;;;;8.32;1.10;;;12.10;90.70;;;;;;4990512;28;20034;-73
2023/01/17 11:59:36;;;;;;;22.67;10.52;;;12.20;86.70;;;;;;4991690;28;20051;-76
2023/01/17 12:02:34;;;;;;;9.68;5.20;;;11.90;88.50;;;;;;4991487;28;20495;-78
2023/01/17 12:05:17;;;;;;;2.35;1.23;;;11.40;88.30;;;;;;4992992;28;20053;-75
2023/01/17 12:07:51;;;;;;;5.15;1.38;;;10.80;88.40;;;;;;4994922;28;20045;-78
2023/01/17 12:10:20;;;;;;;6.85;2.05;;;10.80;90.40;;;;;;4993858;28;20068;-79
2023/01/17 12:16:31;;;;;;;5.35;1.58;;;10.60;89.80;;;;;;4995668;28;20042;-79
2023/01/17 12:19:14;;;;;;;6.85;1.23;;;9.80;90.60;;;;;;4993892;28;20034;-83
2023/01/17 12:21:52;;;;;;;5.70;1.30;;;9.50;91.10;;;;;;4994626;28;20045;-79
2023/01/17 12:24:45;;;;;;;6.07;1.20;;;9.60;91.30;;;;;;4994010;28;20054;-83
2023/01/17 12:27:21;;;;;;;6.38;1.20;;;9.30;91.00;;;;;;4994819;28;20030;-75
2023/01/17 12:29:47;;;;;;;6.93;0.90;;;9.20;91.10;;;;;;4993851;28;20034;-76
2023/01/17 12:32:26;;;;;;;6.07;1.20;;;8.70;91.50;;;;;;4993615;28;20040;-83
2023/01/17 12:35:05;;;;;;;4.38;1.30;;;8.50;91.50;;;;;;4994035;28;20053;-77
2023/01/17 12:37:40;;;;;;;7.63;1.23;;;8.50;91.80;;;;;;4993386;28;20027;-79
2023/01/17 12:40:15;;;;;;;9.63;1.63;;;8.50;91.90;;;;;;4993253;28;20080;-77
2023/01/17 12:42:46;;;;;;;6.10;1.40;;;8.50;92.00;;;;;;4994304;28;20038;-78
2023/01/17 12:45:20;;;;;;;5.72;1.20;;;8.00;91.80;;;;;;4994053;28;20034;-77
2023/01/17 12:47:53;;;;;;;8.75;1.27;;;7.70;92.00;;;;;;4993249;28;20069;-79
2023/01/17 12:50:22;;;;;;;3.10;0.95;;;7.80;92.30;;;;;;4992846;28;20068;-80
2023/01/17 12:53:09;;;;;;;2.75;0.90;;;7.50;92.60;;;;;;4993684;28;20049;-76
2023/01/17 12:56:11;;;;;;;3.60;0.88;;;7.40;93.10;;;;;;4993674;28;20104;-79
2023/01/17 12:58:43;;;;;;;5.35;1.00;;;7.50;93.00;;;;;;4993175;28;20045;-76
2023/01/17 13:01:38;;;;;;;2.45;1.10;;;7.50;93.00;;;;;;4992834;28;20030;-77
2023/01/17 13:04:20;;;;;;;1.70;0.80;;;7.30;93.00;;;;;;4994121;28;20030;-79
2023/01/17 13:07:19;;;;;;;7.90;1.58;;;7.40;93.30;;;;;;4993811;28;20125;-81
2023/01/17 13:09:56;;;;;;;5.70;1.52;;;7.60;93.20;;;;;;4992573;28;20038;-79
2023/01/17 13:12:27;;;;;;;6.60;1.63;;;7.60;93.10;;;;;;4993376;28;20096;-78
2023/01/17 13:14:53;;;;;;;4.07;1.00;;;7.70;93.00;;;;;;4992492;28;20441;-80
2023/01/17 13:17:47;;;;;;;7.28;1.48;;;7.70;92.90;;;;;;4991810;28;20123;-77
2023/01/17 13:20:27;;;;;;;1.77;1.00;;;7.60;92.90;;;;;;4992137;28;20035;-78
2023/01/17 13:23:11;;;;;;;4.75;1.05;;;7.70;93.00;;;;;;4991984;28;20046;-80
2023/01/17 13:25:45;;;;;;;6.43;1.85;;;7.70;92.70;;;;;;4992956;28;20053;-81
2023/01/17 13:28:28;;;;;;;4.72;1.63;;;7.90;92.90;;;;;;4992442;28;20034;-78
2023/01/17 13:31:03;;;;;;;4.28;1.27;;;8.00;92.70;;;;;;4993095;28;20038;-76
2023/01/17 13:33:48;;;;;;;6.18;1.67;;;8.00;92.30;;;;;;4993207;28;20295;-78
2023/01/17 13:36:28;;;;;;;9.15;1.50;;;7.90;92.10;;;;;;4992827;28;20043;-77
2023/01/17 13:39:06;;;;;;;5.68;1.60;;;8.00;91.80;;;;;;4991517;28;20026;-77
2023/01/17 13:41:44;;;;;;;7.47;1.45;;;7.90;92.10;;;;;;4992087;28;20030;-77
2023/01/17 13:44:21;;;;;;;7.10;1.88;;;7.80;91.80;;;;;;4992610;28;20029;-77
2023/01/17 13:47:30;;;;;;;9.63;2.30;;;7.70;92.20;;;;;;4991551;28;20469;-77
2023/01/17 13:49:57;;;;;;;5.60;1.60;;;7.80;92.20;;;;;;4973595;28;20041;-78
2023/01/17 13:52:22;;;;;;;5.20;1.30;;;7.90;92.20;;;;;;4990442;28;20038;-84
2023/01/17 13:54:52;;;;;;;3.50;1.35;;;7.70;92.30;;;;;;4991551;28;20038;-80
2023/01/17 13:57:28;;;;;;;6.40;2.00;;;7.70;92.40;;;;;;4991480;28;20081;-82
2023/01/17 13:59:58;;;;;;;6.13;2.13;;;7.50;92.40;;;;;;4991794;28;20108;-81
2023/01/17 14:02:30;;;;;;;4.95;1.70;;;7.30;92.40;;;;;;4993589;28;20026;-80
2023/01/17 14:05:20;;;;;;;8.23;2.28;;;7.40;92.50;;;;;;4992262;28;20103;-81
2023/01/17 14:07:46;;;;;;;3.65;1.70;;;7.50;92.50;;;;;;4991030;28;20101;-81
2023/01/17 14:10:39;;;;;;;9.35;2.10;;;7.30;92.50;;;;;;4992586;28;20061;-78
2023/01/17 14:13:33;;;;;;;5.93;1.55;;;7.20;92.60;;;;;;4992196;28;20049;-82
2023/01/17 14:16:00;;;;;;;6.65;1.88;;;7.20;92.60;;;;;;4992318;28;20073;-80
2023/01/17 14:18:45;;;;;;;4.95;1.60;;;7.20;92.50;;;;;;4990840;28;20125;-79
2023/01/17 14:21:18;;;;;;;8.48;1.60;;;7.20;92.50;;;;;;4990679;28;20070;-81
2023/01/17 14:24:20;;;;;;;5.03;1.63;;;7.10;92.60;;;;;;4992807;28;20352;-81
2023/01/17 14:26:58;;;;;;;11.68;2.33;;;7.10;92.90;;;;;;4990698;28;20076;-80
2023/01/17 14:29:43;;;;;;;;;;;7.10;92.80;;;;;;4992399;28;20129;-76
2023/01/17 14:32:14;;;;;;;10.27;1.83;;;7.10;93.00;;;;;;4990881;28;19921;-79
2023/01/17 14:34:41;;;;;;;4.40;1.75;;;6.90;93.00;;;;;;4983323;28;20057;-79
2023/01/17 14:37:28;;;;;;;11.80;2.43;;;6.70;93.20;;;;;;4991954;28;20069;-84
2023/01/17 14:39:54;;;;;;;8.80;2.00;;;6.90;93.40;;;;;;4993540;28;20037;-83
2023/01/17 14:42:23;;;;;;;6.35;2.05;;;6.90;93.20;;;;;;4994081;28;20038;-80
2023/01/17 14:44:55;;;;;;;6.22;1.77;;;6.80;93.40;;;;;;4996931;28;20116;-81
2023/01/17 14:47:21;;;;;;;14.05;2.45;;;6.90;93.40;;;;;;4995874;28;20117;-81
2023/01/17 14:49:47;;;;;;;7.28;2.30;;;6.80;93.40;;;;;;4995033;28;20528;-82